sensor_id;sensor_type;location;lat;lon;timestamp;P1;durP1;ratioP1;P2;durP2;ratioP2
51883;SDS011;37915;53.254;6.598;2022-12-10T00:01:48;41.72;;;19.88;;
51883;SDS011;37915;53.254;6.598;2022-12-10T00:04:15;43.60;;;20.75;;
51883;SDS011;37915;53.254;6.598;2022-12-10T00:06:41;39.38;;;20.70;;
51883;SDS011;37915;53.254;6.598;2022-12-10T00:09:09;46.90;;;19.95;;
51883;SDS011;37915;53.254;6.598;2022-12-10T00:11:39;44.60;;;20.77;;
51883;SDS011;37915;53.254;6.598;2022-12-10T00:14:06;43.67;;;20.30;;
51883;SDS011;37915;53.254;6.598;2022-12-10T00:16:34;43.13;;;20.25;;
51883;SDS011;37915;53.254;6.598;2022-12-10T00:19:00;41.85;;;20.05;;
51883;SDS011;37915;53.254;6.598;2022-12-10T00:21:27;44.05;;;19.00;;
51883;SDS011;37915;53.254;6.598;2022-12-10T00:23:56;40.05;;;19.55;;
51883;SDS011;37915;53.254;6.598;2022-12-10T00:26:26;34.15;;;17.05;;
51883;SDS011;37915;53.254;6.598;2022-12-10T00:28:54;44.10;;;20.88;;
51883;SDS011;37915;53.254;6.598;2022-12-10T00:31:24;42.58;;;20.02;;
51883;SDS011;37915;53.254;6.598;2022-12-10T00:33:59;42.10;;;18.58;;
51883;SDS011;37915;53.254;6.598;2022-12-10T00:36:30;49.90;;;21.35;;
51883;SDS011;37915;53.254;6.598;2022-12-10T00:38:58;40.95;;;20.02;;
51883;SDS011;37915;53.254;6.598;2022-12-10T00:41:24;36.92;;;18.67;;
51883;SDS011;37915;53.254;6.598;2022-12-10T00:43:50;47.38;;;21.95;;
51883;SDS011;37915;53.254;6.598;2022-12-10T00:46:16;41.78;;;19.50;;
51883;SDS011;37915;53.254;6.598;2022-12-10T00:48:44;39.70;;;19.30;;
51883;SDS011;37915;53.254;6.598;2022-12-10T00:53:41;51.20;;;22.65;;
51883;SDS011;37915;53.254;6.598;2022-12-10T00:56:08;42.67;;;21.70;;
51883;SDS011;37915;53.254;6.598;2022-12-10T00:58:35;46.42;;;21.75;;
51883;SDS011;37915;53.254;6.598;2022-12-10T01:01:09;48.85;;;22.42;;
51883;SDS011;37915;53.254;6.598;2022-12-10T01:03:37;46.92;;;22.85;;
51883;SDS011;37915;53.254;6.598;2022-12-10T01:08:40;48.65;;;23.17;;
51883;SDS011;37915;53.254;6.598;2022-12-10T01:11:08;50.63;;;22.50;;
51883;SDS011;37915;53.254;6.598;2022-12-10T01:13:35;47.15;;;21.85;;
51883;SDS011;37915;53.254;6.598;2022-12-10T01:16:02;54.53;;;24.67;;
51883;SDS011;37915;53.254;6.598;2022-12-10T01:18:29;47.05;;;22.63;;
51883;SDS011;37915;53.254;6.598;2022-12-10T01:20:59;51.33;;;22.63;;
51883;SDS011;37915;53.254;6.598;2022-12-10T01:25:58;42.60;;;21.60;;
51883;SDS011;37915;53.254;6.598;2022-12-10T01:28:25;49.28;;;21.70;;
51883;SDS011;37915;53.254;6.598;2022-12-10T01:30:52;47.00;;;22.30;;
51883;SDS011;37915;53.254;6.598;2022-12-10T01:33:18;50.92;;;23.33;;
51883;SDS011;37915;53.254;6.598;2022-12-10T01:35:43;54.15;;;23.23;;
51883;SDS011;37915;53.254;6.598;2022-12-10T01:38:09;53.05;;;23.48;;
51883;SDS011;37915;53.254;6.598;2022-12-10T01:40:38;51.47;;;23.88;;
51883;SDS011;37915;53.254;6.598;2022-12-10T01:43:04;54.67;;;22.98;;
51883;SDS011;37915;53.254;6.598;2022-12-10T01:45:30;50.95;;;22.58;;
51883;SDS011;37915;53.254;6.598;2022-12-10T01:47:56;54.40;;;23.38;;
51883;SDS011;37915;53.254;6.598;2022-12-10T01:50:21;51.65;;;22.27;;
51883;SDS011;37915;53.254;6.598;2022-12-10T01:52:47;46.10;;;22.63;;
51883;SDS011;37915;53.254;6.598;2022-12-10T01:58:04;57.08;;;24.48;;
51883;SDS011;37915;53.254;6.598;2022-12-10T02:00:31;53.05;;;25.40;;
51883;SDS011;37915;53.254;6.598;2022-12-10T02:03:01;49.53;;;25.25;;
51883;SDS011;37915;53.254;6.598;2022-12-10T02:05:41;47.67;;;22.70;;
51883;SDS011;37915;53.254;6.598;2022-12-10T02:08:26;51.50;;;23.98;;
51883;SDS011;37915;53.254;6.598;2022-12-10T02:11:13;59.20;;;24.15;;
51883;SDS011;37915;53.254;6.598;2022-12-10T02:13:46;48.97;;;23.45;;
51883;SDS011;37915;53.254;6.598;2022-12-10T02:16:34;55.93;;;25.13;;
51883;SDS011;37915;53.254;6.598;2022-12-10T02:21:50;47.53;;;22.05;;
51883;SDS011;37915;53.254;6.598;2022-12-10T02:24:28;50.00;;;23.95;;
51883;SDS011;37915;53.254;6.598;2022-12-10T02:27:06;45.75;;;23.45;;
51883;SDS011;37915;53.254;6.598;2022-12-10T02:29:40;50.38;;;24.17;;
51883;SDS011;37915;53.254;6.598;2022-12-10T02:32:12;50.33;;;23.90;;
51883;SDS011;37915;53.254;6.598;2022-12-10T02:34:43;48.60;;;23.70;;
51883;SDS011;37915;53.254;6.598;2022-12-10T02:37:15;42.28;;;20.88;;
51883;SDS011;37915;53.254;6.598;2022-12-10T02:39:46;60.10;;;24.73;;
51883;SDS011;37915;53.254;6.598;2022-12-10T02:42:16;49.30;;;23.77;;
51883;SDS011;37915;53.254;6.598;2022-12-10T02:44:44;48.03;;;22.40;;
51883;SDS011;37915;53.254;6.598;2022-12-10T02:47:12;57.00;;;23.48;;
51883;SDS011;37915;53.254;6.598;2022-12-10T02:49:39;66.53;;;26.52;;
51883;SDS011;37915;53.254;6.598;2022-12-10T02:52:09;51.20;;;26.00;;
51883;SDS011;37915;53.254;6.598;2022-12-10T02:54:42;47.92;;;22.60;;
51883;SDS011;37915;53.254;6.598;2022-12-10T03:00:07;55.33;;;23.40;;
51883;SDS011;37915;53.254;6.598;2022-12-10T03:08:32;51.55;;;23.42;;
51883;SDS011;37915;53.254;6.598;2022-12-10T03:11:10;51.65;;;24.52;;
51883;SDS011;37915;53.254;6.598;2022-12-10T03:14:07;55.08;;;25.23;;
51883;SDS011;37915;53.254;6.598;2022-12-10T03:16:46;48.95;;;23.55;;
51883;SDS011;37915;53.254;6.598;2022-12-10T03:19:18;51.05;;;24.08;;
51883;SDS011;37915;53.254;6.598;2022-12-10T03:21:48;53.15;;;25.05;;
51883;SDS011;37915;53.254;6.598;2022-12-10T03:24:16;53.10;;;25.27;;
51883;SDS011;37915;53.254;6.598;2022-12-10T03:26:43;59.05;;;25.27;;
51883;SDS011;37915;53.254;6.598;2022-12-10T03:29:14;57.78;;;26.23;;
51883;SDS011;37915;53.254;6.598;2022-12-10T03:31:43;55.97;;;24.33;;
51883;SDS011;37915;53.254;6.598;2022-12-10T03:34:10;50.80;;;24.45;;
51883;SDS011;37915;53.254;6.598;2022-12-10T03:36:37;52.55;;;24.67;;
51883;SDS011;37915;53.254;6.598;2022-12-10T03:39:04;66.80;;;27.38;;
51883;SDS011;37915;53.254;6.598;2022-12-10T03:41:31;50.08;;;23.60;;
51883;SDS011;37915;53.254;6.598;2022-12-10T03:43:58;55.05;;;26.02;;
51883;SDS011;37915;53.254;6.598;2022-12-10T03:46:25;58.03;;;24.95;;
51883;SDS011;37915;53.254;6.598;2022-12-10T03:48:53;56.88;;;25.38;;
51883;SDS011;37915;53.254;6.598;2022-12-10T03:51:19;51.38;;;23.50;;
51883;SDS011;37915;53.254;6.598;2022-12-10T03:53:46;56.08;;;26.20;;
51883;SDS011;37915;53.254;6.598;2022-12-10T03:56:13;59.03;;;25.00;;
51883;SDS011;37915;53.254;6.598;2022-12-10T03:58:39;51.70;;;24.02;;
51883;SDS011;37915;53.254;6.598;2022-12-10T04:01:05;52.22;;;23.60;;
51883;SDS011;37915;53.254;6.598;2022-12-10T04:03:33;49.60;;;23.58;;
51883;SDS011;37915;53.254;6.598;2022-12-10T04:06:02;50.17;;;23.63;;
51883;SDS011;37915;53.254;6.598;2022-12-10T04:08:28;52.22;;;25.98;;
51883;SDS011;37915;53.254;6.598;2022-12-10T04:10:54;54.22;;;23.52;;
51883;SDS011;37915;53.254;6.598;2022-12-10T04:13:19;55.33;;;24.67;;
51883;SDS011;37915;53.254;6.598;2022-12-10T04:16:03;55.83;;;24.27;;
51883;SDS011;37915;53.254;6.598;2022-12-10T04:18:48;52.50;;;25.50;;
51883;SDS011;37915;53.254;6.598;2022-12-10T04:21:13;56.75;;;26.08;;
51883;SDS011;37915;53.254;6.598;2022-12-10T04:23:57;63.95;;;25.58;;
51883;SDS011;37915;53.254;6.598;2022-12-10T04:26:42;56.30;;;24.60;;
51883;SDS011;37915;53.254;6.598;2022-12-10T04:29:21;52.95;;;24.88;;
51883;SDS011;37915;53.254;6.598;2022-12-10T04:31:48;59.33;;;25.20;;
51883;SDS011;37915;53.254;6.598;2022-12-10T04:34:13;61.85;;;25.33;;
51883;SDS011;37915;53.254;6.598;2022-12-10T04:36:39;49.03;;;23.27;;
51883;SDS011;37915;53.254;6.598;2022-12-10T04:39:05;55.35;;;25.23;;
51883;SDS011;37915;53.254;6.598;2022-12-10T04:41:30;55.03;;;25.42;;
51883;SDS011;37915;53.254;6.598;2022-12-10T04:43:56;57.90;;;26.10;;
51883;SDS011;37915;53.254;6.598;2022-12-10T04:46:21;54.45;;;25.17;;
51883;SDS011;37915;53.254;6.598;2022-12-10T04:48:47;64.88;;;25.63;;
51883;SDS011;37915;53.254;6.598;2022-12-10T04:51:13;56.67;;;25.90;;
51883;SDS011;37915;53.254;6.598;2022-12-10T04:53:38;52.03;;;23.83;;
51883;SDS011;37915;53.254;6.598;2022-12-10T04:56:04;52.83;;;24.27;;
51883;SDS011;37915;53.254;6.598;2022-12-10T04:58:31;54.15;;;23.10;;
51883;SDS011;37915;53.254;6.598;2022-12-10T05:01:01;61.40;;;25.67;;
51883;SDS011;37915;53.254;6.598;2022-12-10T05:03:28;57.83;;;24.85;;
51883;SDS011;37915;53.254;6.598;2022-12-10T05:05:54;58.03;;;25.25;;
51883;SDS011;37915;53.254;6.598;2022-12-10T05:08:20;52.47;;;24.20;;
51883;SDS011;37915;53.254;6.598;2022-12-10T05:10:45;58.90;;;23.95;;
51883;SDS011;37915;53.254;6.598;2022-12-10T05:13:11;59.80;;;25.38;;
51883;SDS011;37915;53.254;6.598;2022-12-10T05:15:40;57.95;;;25.83;;
51883;SDS011;37915;53.254;6.598;2022-12-10T05:18:05;59.42;;;27.25;;
51883;SDS011;37915;53.254;6.598;2022-12-10T05:20:31;52.42;;;24.98;;
51883;SDS011;37915;53.254;6.598;2022-12-10T05:22:57;58.38;;;24.85;;
51883;SDS011;37915;53.254;6.598;2022-12-10T05:25:41;56.60;;;24.02;;
51883;SDS011;37915;53.254;6.598;2022-12-10T05:28:21;58.10;;;25.13;;
51883;SDS011;37915;53.254;6.598;2022-12-10T05:30:47;67.65;;;26.63;;
51883;SDS011;37915;53.254;6.598;2022-12-10T05:33:13;48.45;;;21.65;;
51883;SDS011;37915;53.254;6.598;2022-12-10T05:35:39;56.15;;;24.70;;
51883;SDS011;37915;53.254;6.598;2022-12-10T05:38:05;64.97;;;27.83;;
51883;SDS011;37915;53.254;6.598;2022-12-10T05:40:35;63.55;;;26.25;;
51883;SDS011;37915;53.254;6.598;2022-12-10T05:43:03;55.25;;;25.73;;
51883;SDS011;37915;53.254;6.598;2022-12-10T05:45:31;64.00;;;26.85;;
51883;SDS011;37915;53.254;6.598;2022-12-10T05:47:58;62.08;;;25.75;;
51883;SDS011;37915;53.254;6.598;2022-12-10T05:50:23;63.40;;;26.88;;
51883;SDS011;37915;53.254;6.598;2022-12-10T05:52:52;65.50;;;26.85;;
51883;SDS011;37915;53.254;6.598;2022-12-10T05:55:18;59.58;;;25.30;;
51883;SDS011;37915;53.254;6.598;2022-12-10T05:57:43;71.65;;;27.85;;
51883;SDS011;37915;53.254;6.598;2022-12-10T06:00:09;68.40;;;27.10;;
51883;SDS011;37915;53.254;6.598;2022-12-10T06:02:35;66.15;;;27.67;;
51883;SDS011;37915;53.254;6.598;2022-12-10T06:05:01;61.05;;;25.83;;
51883;SDS011;37915;53.254;6.598;2022-12-10T06:07:27;69.53;;;26.67;;
51883;SDS011;37915;53.254;6.598;2022-12-10T06:09:54;71.75;;;27.85;;
51883;SDS011;37915;53.254;6.598;2022-12-10T06:12:20;73.82;;;29.58;;
51883;SDS011;37915;53.254;6.598;2022-12-10T06:14:46;62.80;;;26.73;;
51883;SDS011;37915;53.254;6.598;2022-12-10T06:17:12;68.05;;;29.55;;
51883;SDS011;37915;53.254;6.598;2022-12-10T06:19:37;59.47;;;26.70;;
51883;SDS011;37915;53.254;6.598;2022-12-10T06:22:03;72.88;;;27.63;;
51883;SDS011;37915;53.254;6.598;2022-12-10T06:24:29;71.95;;;30.00;;
51883;SDS011;37915;53.254;6.598;2022-12-10T06:26:54;76.43;;;28.17;;
51883;SDS011;37915;53.254;6.598;2022-12-10T06:29:20;67.70;;;27.05;;
51883;SDS011;37915;53.254;6.598;2022-12-10T06:31:46;70.68;;;28.08;;
51883;SDS011;37915;53.254;6.598;2022-12-10T06:34:11;66.07;;;26.58;;
51883;SDS011;37915;53.254;6.598;2022-12-10T06:36:37;65.15;;;25.17;;
51883;SDS011;37915;53.254;6.598;2022-12-10T06:39:03;63.58;;;26.20;;
51883;SDS011;37915;53.254;6.598;2022-12-10T06:41:29;83.63;;;27.90;;
51883;SDS011;37915;53.254;6.598;2022-12-10T06:43:54;66.00;;;25.38;;
51883;SDS011;37915;53.254;6.598;2022-12-10T06:46:23;61.30;;;25.20;;
51883;SDS011;37915;53.254;6.598;2022-12-10T06:48:51;61.13;;;26.15;;
51883;SDS011;37915;53.254;6.598;2022-12-10T06:51:17;64.30;;;24.42;;
51883;SDS011;37915;53.254;6.598;2022-12-10T06:53:43;65.18;;;25.75;;
51883;SDS011;37915;53.254;6.598;2022-12-10T06:56:11;79.63;;;26.42;;
51883;SDS011;37915;53.254;6.598;2022-12-10T06:58:39;70.60;;;24.65;;
51883;SDS011;37915;53.254;6.598;2022-12-10T07:01:11;65.65;;;25.42;;
51883;SDS011;37915;53.254;6.598;2022-12-10T07:03:41;60.78;;;24.30;;
51883;SDS011;37915;53.254;6.598;2022-12-10T07:06:07;68.75;;;25.88;;
51883;SDS011;37915;53.254;6.598;2022-12-10T07:08:35;66.60;;;26.08;;
51883;SDS011;37915;53.254;6.598;2022-12-10T07:11:05;77.80;;;27.38;;
51883;SDS011;37915;53.254;6.598;2022-12-10T07:13:32;74.65;;;26.80;;
51883;SDS011;37915;53.254;6.598;2022-12-10T07:15:58;78.85;;;26.45;;
51883;SDS011;37915;53.254;6.598;2022-12-10T07:18:24;80.47;;;25.67;;
51883;SDS011;37915;53.254;6.598;2022-12-10T07:20:50;87.00;;;26.55;;
51883;SDS011;37915;53.254;6.598;2022-12-10T07:23:15;85.63;;;27.92;;
51883;SDS011;37915;53.254;6.598;2022-12-10T07:25:41;54.95;;;20.33;;
51883;SDS011;37915;53.254;6.598;2022-12-10T07:28:07;60.08;;;20.98;;
51883;SDS011;37915;53.254;6.598;2022-12-10T07:30:32;76.00;;;24.98;;
51883;SDS011;37915;53.254;6.598;2022-12-10T07:32:58;61.40;;;24.25;;
51883;SDS011;37915;53.254;6.598;2022-12-10T07:35:24;70.07;;;24.83;;
51883;SDS011;37915;53.254;6.598;2022-12-10T07:37:50;73.78;;;25.20;;
51883;SDS011;37915;53.254;6.598;2022-12-10T07:40:16;69.15;;;25.70;;
51883;SDS011;37915;53.254;6.598;2022-12-10T07:42:41;72.57;;;27.50;;
51883;SDS011;37915;53.254;6.598;2022-12-10T07:45:07;102.60;;;29.00;;
51883;SDS011;37915;53.254;6.598;2022-12-10T07:47:37;52.40;;;22.88;;
51883;SDS011;37915;53.254;6.598;2022-12-10T07:50:04;61.00;;;23.15;;
51883;SDS011;37915;53.254;6.598;2022-12-10T07:52:30;68.68;;;25.85;;
51883;SDS011;37915;53.254;6.598;2022-12-10T07:54:56;80.03;;;24.67;;
51883;SDS011;37915;53.254;6.598;2022-12-10T07:57:22;62.22;;;25.67;;
51883;SDS011;37915;53.254;6.598;2022-12-10T07:59:47;66.95;;;26.10;;
51883;SDS011;37915;53.254;6.598;2022-12-10T08:02:13;66.75;;;24.10;;
51883;SDS011;37915;53.254;6.598;2022-12-10T08:04:39;69.78;;;25.30;;
51883;SDS011;37915;53.254;6.598;2022-12-10T08:07:04;63.28;;;24.13;;
51883;SDS011;37915;53.254;6.598;2022-12-10T08:09:30;73.00;;;25.38;;
51883;SDS011;37915;53.254;6.598;2022-12-10T08:11:57;73.60;;;22.60;;
51883;SDS011;37915;53.254;6.598;2022-12-10T08:14:22;59.85;;;22.80;;
51883;SDS011;37915;53.254;6.598;2022-12-10T08:16:48;65.07;;;25.75;;
51883;SDS011;37915;53.254;6.598;2022-12-10T08:19:14;63.10;;;25.38;;
51883;SDS011;37915;53.254;6.598;2022-12-10T08:21:39;70.05;;;27.02;;
51883;SDS011;37915;53.254;6.598;2022-12-10T08:24:05;62.60;;;23.40;;
51883;SDS011;37915;53.254;6.598;2022-12-10T08:26:31;57.95;;;25.30;;
51883;SDS011;37915;53.254;6.598;2022-12-10T08:28:58;69.30;;;25.55;;
51883;SDS011;37915;53.254;6.598;2022-12-10T08:31:24;60.40;;;25.48;;
51883;SDS011;37915;53.254;6.598;2022-12-10T08:33:51;52.47;;;21.20;;
51883;SDS011;37915;53.254;6.598;2022-12-10T08:36:18;68.40;;;25.10;;
51883;SDS011;37915;53.254;6.598;2022-12-10T08:38:44;46.40;;;21.13;;
51883;SDS011;37915;53.254;6.598;2022-12-10T08:41:12;78.70;;;26.88;;
51883;SDS011;37915;53.254;6.598;2022-12-10T08:43:42;59.60;;;24.30;;
51883;SDS011;37915;53.254;6.598;2022-12-10T08:46:09;69.05;;;26.92;;
51883;SDS011;37915;53.254;6.598;2022-12-10T08:48:35;62.65;;;24.38;;
51883;SDS011;37915;53.254;6.598;2022-12-10T08:51:02;49.65;;;20.80;;
51883;SDS011;37915;53.254;6.598;2022-12-10T08:53:29;72.88;;;24.67;;
51883;SDS011;37915;53.254;6.598;2022-12-10T08:55:54;54.58;;;21.92;;
51883;SDS011;37915;53.254;6.598;2022-12-10T08:58:20;50.08;;;21.00;;
51883;SDS011;37915;53.254;6.598;2022-12-10T09:00:47;54.30;;;21.00;;
51883;SDS011;37915;53.254;6.598;2022-12-10T09:03:14;52.53;;;21.77;;
51883;SDS011;37915;53.254;6.598;2022-12-10T09:05:40;34.80;;;15.27;;
51883;SDS011;37915;53.254;6.598;2022-12-10T09:08:06;50.35;;;20.92;;
51883;SDS011;37915;53.254;6.598;2022-12-10T09:10:32;54.25;;;21.70;;
51883;SDS011;37915;53.254;6.598;2022-12-10T09:12:57;52.25;;;20.75;;
51883;SDS011;37915;53.254;6.598;2022-12-10T09:15:23;51.08;;;21.95;;
51883;SDS011;37915;53.254;6.598;2022-12-10T09:17:49;63.38;;;23.55;;
51883;SDS011;37915;53.254;6.598;2022-12-10T09:20:14;61.13;;;22.92;;
51883;SDS011;37915;53.254;6.598;2022-12-10T09:22:40;53.83;;;20.60;;
51883;SDS011;37915;53.254;6.598;2022-12-10T09:25:07;49.50;;;21.05;;
51883;SDS011;37915;53.254;6.598;2022-12-10T09:27:35;56.00;;;22.30;;
51883;SDS011;37915;53.254;6.598;2022-12-10T09:30:02;48.10;;;20.02;;
51883;SDS011;37915;53.254;6.598;2022-12-10T09:32:29;48.28;;;18.52;;
51883;SDS011;37915;53.254;6.598;2022-12-10T09:34:55;51.78;;;20.08;;
51883;SDS011;37915;53.254;6.598;2022-12-10T09:37:20;43.72;;;18.83;;
51883;SDS011;37915;53.254;6.598;2022-12-10T09:39:46;52.63;;;20.02;;
51883;SDS011;37915;53.254;6.598;2022-12-10T09:42:24;46.70;;;20.20;;
51883;SDS011;37915;53.254;6.598;2022-12-10T09:47:44;45.67;;;20.52;;
51883;SDS011;37915;53.254;6.598;2022-12-10T09:50:33;47.97;;;19.38;;
51883;SDS011;37915;53.254;6.598;2022-12-10T09:53:21;43.47;;;18.95;;
51883;SDS011;37915;53.254;6.598;2022-12-10T09:55:48;46.97;;;18.50;;
51883;SDS011;37915;53.254;6.598;2022-12-10T09:58:19;46.35;;;18.33;;
51883;SDS011;37915;53.254;6.598;2022-12-10T10:00:48;46.58;;;17.95;;
51883;SDS011;37915;53.254;6.598;2022-12-10T10:03:24;40.50;;;17.67;;
51883;SDS011;37915;53.254;6.598;2022-12-10T10:05:50;47.78;;;19.20;;
51883;SDS011;37915;53.254;6.598;2022-12-10T10:08:32;53.30;;;22.50;;
51883;SDS011;37915;53.254;6.598;2022-12-10T10:11:02;43.57;;;19.20;;
51883;SDS011;37915;53.254;6.598;2022-12-10T10:13:30;42.53;;;19.45;;
51883;SDS011;37915;53.254;6.598;2022-12-10T10:16:09;52.22;;;21.63;;
51883;SDS011;37915;53.254;6.598;2022-12-10T10:18:45;51.08;;;19.73;;
51883;SDS011;37915;53.254;6.598;2022-12-10T10:23:45;53.78;;;20.25;;
51883;SDS011;37915;53.254;6.598;2022-12-10T10:26:11;44.20;;;20.02;;
51883;SDS011;37915;53.254;6.598;2022-12-10T10:28:38;57.10;;;21.90;;
51883;SDS011;37915;53.254;6.598;2022-12-10T10:31:12;65.82;;;24.23;;
51883;SDS011;37915;53.254;6.598;2022-12-10T10:33:57;52.10;;;23.98;;
51883;SDS011;37915;53.254;6.598;2022-12-10T10:36:29;59.88;;;23.40;;
51883;SDS011;37915;53.254;6.598;2022-12-10T10:41:41;56.33;;;23.38;;
51883;SDS011;37915;53.254;6.598;2022-12-10T10:44:14;50.15;;;21.23;;
51883;SDS011;37915;53.254;6.598;2022-12-10T10:46:42;50.42;;;21.70;;
51883;SDS011;37915;53.254;6.598;2022-12-10T10:51:52;48.65;;;20.90;;
51883;SDS011;37915;53.254;6.598;2022-12-10T10:59:45;43.78;;;19.30;;
51883;SDS011;37915;53.254;6.598;2022-12-10T11:02:23;52.97;;;20.98;;
51883;SDS011;37915;53.254;6.598;2022-12-10T11:07:59;36.65;;;16.92;;
51883;SDS011;37915;53.254;6.598;2022-12-10T11:10:27;31.55;;;14.77;;
51883;SDS011;37915;53.254;6.598;2022-12-10T11:13:10;32.28;;;15.18;;
51883;SDS011;37915;53.254;6.598;2022-12-10T11:15:55;33.03;;;16.35;;
51883;SDS011;37915;53.254;6.598;2022-12-10T11:18:58;34.58;;;15.13;;
51883;SDS011;37915;53.254;6.598;2022-12-10T11:21:30;27.88;;;14.15;;
51883;SDS011;37915;53.254;6.598;2022-12-10T11:23:57;35.88;;;15.80;;
51883;SDS011;37915;53.254;6.598;2022-12-10T11:51:03;34.30;;;15.75;;
51883;SDS011;37915;53.254;6.598;2022-12-10T11:53:37;36.30;;;16.38;;
51883;SDS011;37915;53.254;6.598;2022-12-10T11:58:46;32.05;;;15.05;;
51883;SDS011;37915;53.254;6.598;2022-12-10T12:14:49;36.10;;;15.77;;
51883;SDS011;37915;53.254;6.598;2022-12-10T12:19:52;34.83;;;17.27;;
51883;SDS011;37915;53.254;6.598;2022-12-10T12:22:22;32.92;;;15.35;;
51883;SDS011;37915;53.254;6.598;2022-12-10T12:25:08;36.97;;;16.80;;
51883;SDS011;37915;53.254;6.598;2022-12-10T12:27:48;37.75;;;16.80;;
51883;SDS011;37915;53.254;6.598;2022-12-10T12:30:19;38.85;;;16.38;;
51883;SDS011;37915;53.254;6.598;2022-12-10T12:36:02;42.42;;;18.15;;
51883;SDS011;37915;53.254;6.598;2022-12-10T12:40:53;37.83;;;17.70;;
51883;SDS011;37915;53.254;6.598;2022-12-10T12:46:09;43.83;;;19.27;;
51883;SDS011;37915;53.254;6.598;2022-12-10T12:48:42;42.58;;;18.85;;
51883;SDS011;37915;53.254;6.598;2022-12-10T12:51:17;52.28;;;19.80;;
51883;SDS011;37915;53.254;6.598;2022-12-10T12:53:48;43.45;;;19.13;;
51883;SDS011;37915;53.254;6.598;2022-12-10T12:56:21;44.40;;;19.27;;
51883;SDS011;37915;53.254;6.598;2022-12-10T12:59:26;40.88;;;18.58;;
51883;SDS011;37915;53.254;6.598;2022-12-10T13:10:42;47.22;;;17.90;;
51883;SDS011;37915;53.254;6.598;2022-12-10T13:15:21;37.58;;;15.48;;
51883;SDS011;37915;53.254;6.598;2022-12-10T13:23:30;40.42;;;17.75;;
51883;SDS011;37915;53.254;6.598;2022-12-10T13:26:00;41.95;;;17.52;;
51883;SDS011;37915;53.254;6.598;2022-12-10T13:28:37;38.72;;;17.25;;
51883;SDS011;37915;53.254;6.598;2022-12-10T13:34:22;46.10;;;18.20;;
51883;SDS011;37915;53.254;6.598;2022-12-10T13:39:20;40.50;;;16.70;;
51883;SDS011;37915;53.254;6.598;2022-12-10T13:47:41;40.47;;;16.63;;
51883;SDS011;37915;53.254;6.598;2022-12-10T13:53:10;39.80;;;17.55;;
51883;SDS011;37915;53.254;6.598;2022-12-10T13:58:57;47.38;;;18.63;;
51883;SDS011;37915;53.254;6.598;2022-12-10T14:09:50;39.53;;;14.93;;
51883;SDS011;37915;53.254;6.598;2022-12-10T14:12:20;47.20;;;19.65;;
51883;SDS011;37915;53.254;6.598;2022-12-10T14:15:02;44.28;;;17.75;;
51883;SDS011;37915;53.254;6.598;2022-12-10T14:17:37;45.42;;;18.73;;
51883;SDS011;37915;53.254;6.598;2022-12-10T14:20:06;36.88;;;14.95;;
51883;SDS011;37915;53.254;6.598;2022-12-10T14:22:44;50.03;;;19.17;;
51883;SDS011;37915;53.254;6.598;2022-12-10T14:25:16;40.15;;;16.17;;
51883;SDS011;37915;53.254;6.598;2022-12-10T14:27:51;41.92;;;17.85;;
51883;SDS011;37915;53.254;6.598;2022-12-10T14:30:20;49.85;;;18.00;;
51883;SDS011;37915;53.254;6.598;2022-12-10T14:32:53;49.33;;;19.47;;
51883;SDS011;37915;53.254;6.598;2022-12-10T14:35:25;56.63;;;19.05;;
51883;SDS011;37915;53.254;6.598;2022-12-10T14:37:54;51.45;;;19.75;;
51883;SDS011;37915;53.254;6.598;2022-12-10T14:40:35;49.38;;;17.67;;
51883;SDS011;37915;53.254;6.598;2022-12-10T14:43:06;46.70;;;18.08;;
51883;SDS011;37915;53.254;6.598;2022-12-10T14:45:58;48.60;;;18.55;;
51883;SDS011;37915;53.254;6.598;2022-12-10T14:48:24;44.97;;;18.50;;
51883;SDS011;37915;53.254;6.598;2022-12-10T14:50:50;53.08;;;20.13;;
51883;SDS011;37915;53.254;6.598;2022-12-10T14:53:21;51.25;;;20.20;;
51883;SDS011;37915;53.254;6.598;2022-12-10T14:55:49;47.65;;;17.98;;
51883;SDS011;37915;53.254;6.598;2022-12-10T14:58:41;56.05;;;20.92;;
51883;SDS011;37915;53.254;6.598;2022-12-10T15:01:04;48.63;;;19.52;;
51883;SDS011;37915;53.254;6.598;2022-12-10T15:03:32;46.92;;;17.25;;
51883;SDS011;37915;53.254;6.598;2022-12-10T15:06:07;43.45;;;19.50;;
51883;SDS011;37915;53.254;6.598;2022-12-10T15:08:34;50.92;;;18.73;;
51883;SDS011;37915;53.254;6.598;2022-12-10T15:11:01;39.88;;;17.98;;
51883;SDS011;37915;53.254;6.598;2022-12-10T15:13:40;44.58;;;17.77;;
51883;SDS011;37915;53.254;6.598;2022-12-10T15:16:27;46.53;;;19.42;;
51883;SDS011;37915;53.254;6.598;2022-12-10T15:21:58;51.38;;;20.30;;
51883;SDS011;37915;53.254;6.598;2022-12-10T15:24:42;47.85;;;18.92;;
51883;SDS011;37915;53.254;6.598;2022-12-10T15:27:51;48.53;;;17.65;;
51883;SDS011;37915;53.254;6.598;2022-12-10T15:30:00;54.13;;;18.05;;
51883;SDS011;37915;53.254;6.598;2022-12-10T15:32:47;45.00;;;17.75;;
51883;SDS011;37915;53.254;6.598;2022-12-10T15:35:14;53.75;;;20.73;;
51883;SDS011;37915;53.254;6.598;2022-12-10T15:37:40;32.83;;;14.77;;
51883;SDS011;37915;53.254;6.598;2022-12-10T15:42:55;36.00;;;13.77;;
51883;SDS011;37915;53.254;6.598;2022-12-10T15:45:41;37.50;;;16.23;;
51883;SDS011;37915;53.254;6.598;2022-12-10T15:48:08;38.83;;;15.38;;
51883;SDS011;37915;53.254;6.598;2022-12-10T15:50:36;43.38;;;16.45;;
51883;SDS011;37915;53.254;6.598;2022-12-10T15:53:03;35.78;;;15.77;;
51883;SDS011;37915;53.254;6.598;2022-12-10T15:55:29;32.05;;;15.23;;
51883;SDS011;37915;53.254;6.598;2022-12-10T15:57:55;37.50;;;16.40;;
51883;SDS011;37915;53.254;6.598;2022-12-10T16:00:22;30.52;;;13.07;;
51883;SDS011;37915;53.254;6.598;2022-12-10T16:02:56;48.95;;;18.13;;
51883;SDS011;37915;53.254;6.598;2022-12-10T16:11:00;51.90;;;17.70;;
51883;SDS011;37915;53.254;6.598;2022-12-10T16:13:35;55.67;;;20.20;;
51883;SDS011;37915;53.254;6.598;2022-12-10T16:16:09;61.42;;;19.63;;
51883;SDS011;37915;53.254;6.598;2022-12-10T16:18:35;59.72;;;19.35;;
51883;SDS011;37915;53.254;6.598;2022-12-10T16:21:05;65.55;;;22.20;;
51883;SDS011;37915;53.254;6.598;2022-12-10T16:23:32;51.28;;;19.05;;
51883;SDS011;37915;53.254;6.598;2022-12-10T16:25:58;63.75;;;19.42;;
51883;SDS011;37915;53.254;6.598;2022-12-10T16:28:26;54.88;;;20.92;;
51883;SDS011;37915;53.254;6.598;2022-12-10T16:30:53;51.60;;;17.30;;
51883;SDS011;37915;53.254;6.598;2022-12-10T16:33:24;57.15;;;22.23;;
51883;SDS011;37915;53.254;6.598;2022-12-10T16:35:52;53.30;;;18.98;;
51883;SDS011;37915;53.254;6.598;2022-12-10T16:38:19;63.03;;;18.88;;
51883;SDS011;37915;53.254;6.598;2022-12-10T16:40:45;57.38;;;18.95;;
51883;SDS011;37915;53.254;6.598;2022-12-10T16:43:16;59.72;;;19.73;;
51883;SDS011;37915;53.254;6.598;2022-12-10T16:45:44;47.33;;;18.58;;
51883;SDS011;37915;53.254;6.598;2022-12-10T16:48:11;50.65;;;19.13;;
51883;SDS011;37915;53.254;6.598;2022-12-10T16:50:37;62.00;;;21.40;;
51883;SDS011;37915;53.254;6.598;2022-12-10T16:53:11;65.95;;;20.48;;
51883;SDS011;37915;53.254;6.598;2022-12-10T16:55:39;67.18;;;23.63;;
51883;SDS011;37915;53.254;6.598;2022-12-10T16:58:05;81.20;;;24.20;;
51883;SDS011;37915;53.254;6.598;2022-12-10T17:00:34;62.38;;;22.08;;
51883;SDS011;37915;53.254;6.598;2022-12-10T17:03:00;68.28;;;24.45;;